createdAt,value
2022-08-07T00:00:44.401Z,1.22
2022-08-07T00:02:41.101Z,0.96
2022-08-07T00:02:57.217Z,0.98
2022-08-07T00:04:00.309Z,1.03
2022-08-07T00:05:06.057Z,1.05
2022-08-07T00:06:10.122Z,0.94
2022-08-07T00:07:13.798Z,0.82
2022-08-07T00:08:19.592Z,0.93
2022-08-07T00:09:29.172Z,1.05
2022-08-07T00:10:30.401Z,0.92
2022-08-07T00:11:34.125Z,0.89
2022-08-07T00:12:43.640Z,0.72
2022-08-07T00:13:45.590Z,1.14
2022-08-07T00:14:49.471Z,1.21
2022-08-07T00:15:53.128Z,0.96
2022-08-07T00:16:58.094Z,1.01
2022-08-07T00:18:01.164Z,1.12
2022-08-07T00:19:06.052Z,0.90
2022-08-07T00:20:11.043Z,1.04
2022-08-07T00:21:56.592Z,0.79
2022-08-07T00:22:24.884Z,0.93
2022-08-07T00:23:28.505Z,1.10
2022-08-07T00:24:31.768Z,1.06
2022-08-07T00:25:41.159Z,1.15
2022-08-07T00:26:58.926Z,1.02
2022-08-07T00:27:52.136Z,0.91
2022-08-07T00:28:55.335Z,0.99
2022-08-07T00:29:55.189Z,0.82
2022-08-07T00:30:58.420Z,1.12
2022-08-07T00:32:02.940Z,1.04
2022-08-07T00:33:07.918Z,1.16
2022-08-07T00:34:10.775Z,0.89
2022-08-07T00:35:13.867Z,0.91
2022-08-07T00:36:19.351Z,1.04
2022-08-07T00:37:22.647Z,0.96
2022-08-07T00:38:31.656Z,1.12
2022-08-07T00:39:31.039Z,1.11
2022-08-07T00:40:39.687Z,0.99
2022-08-07T00:41:45.361Z,1.03
2022-08-07T00:42:44.708Z,0.94
2022-08-07T00:43:59.053Z,1.33
2022-08-07T00:44:54.632Z,0.89
2022-08-07T00:45:58.817Z,0.96
2022-08-07T00:47:02.765Z,0.85
2022-08-07T00:48:11.036Z,0.78
2022-08-07T00:49:24.808Z,1.02
2022-08-07T00:50:43.631Z,0.93
2022-08-07T00:51:27.915Z,1.03
2022-08-07T00:52:33.243Z,1.15
2022-08-07T00:53:39.367Z,1.04
2022-08-07T00:54:40.932Z,1.06
2022-08-07T00:56:02.401Z,0.92
2022-08-07T00:56:49.844Z,0.86
2022-08-07T00:57:55.706Z,1.27
2022-08-07T00:58:58.870Z,0.91
2022-08-07T01:00:07.688Z,0.80
2022-08-07T01:01:11.360Z,0.81
2022-08-07T01:02:29.178Z,1.02
2022-08-07T01:03:19.324Z,1.13
2022-08-07T01:04:24.964Z,1.16
2022-08-07T01:05:29.286Z,1.14
2022-08-07T01:06:33.262Z,0.96
2022-08-07T01:07:39.245Z,0.92
2022-08-07T01:08:51.443Z,1.08
2022-08-07T01:10:06.280Z,0.89
2022-08-07T01:10:56.362Z,0.99
2022-08-07T01:12:23.477Z,0.89
2022-08-07T01:13:03.534Z,1.08
2022-08-07T01:14:08.864Z,1.02
2022-08-07T01:15:17.626Z,0.99
2022-08-07T01:16:30.360Z,0.86
2022-08-07T01:17:25.131Z,1.26
2022-08-07T01:18:30.478Z,1.04
2022-08-07T01:19:38.344Z,0.95
2022-08-07T01:20:44.509Z,1.33
2022-08-07T01:21:53.487Z,1.22
2022-08-07T01:23:00.653Z,0.88
2022-08-07T01:24:03.060Z,0.85
2022-08-07T01:25:54.328Z,0.88
2022-08-07T01:26:17.549Z,0.81
2022-08-07T01:27:23.110Z,0.84
2022-08-07T01:28:29.673Z,1.48
2022-08-07T01:29:34.275Z,0.98
2022-08-07T01:30:39.555Z,1.06
2022-08-07T01:31:46.162Z,0.96
2022-08-07T01:32:50.420Z,1.16
2022-08-07T01:33:55.759Z,0.96
2022-08-07T01:35:00.586Z,0.99
2022-08-07T01:36:07.598Z,0.84
2022-08-07T01:37:15.862Z,1.03
2022-08-07T01:38:25.055Z,0.96
2022-08-07T01:39:40.387Z,0.71
2022-08-07T01:40:34.715Z,0.90
2022-08-07T01:41:40.688Z,0.99
2022-08-07T01:42:58.793Z,0.97
2022-08-07T01:43:49.979Z,0.93
2022-08-07T01:44:53.555Z,0.94
2022-08-07T01:45:58.634Z,0.84
2022-08-07T01:48:16.674Z,0.87
2022-08-07T01:48:20.529Z,0.79
2022-08-07T01:49:12.443Z,0.70
2022-08-07T01:50:28.558Z,0.77
2022-08-07T01:52:01.852Z,1.58
2022-08-07T01:52:31.389Z,0.94
2022-08-07T01:54:08.869Z,0.91
2022-08-07T01:54:45.061Z,1.15
2022-08-07T01:55:53.812Z,0.81
2022-08-07T01:57:20.438Z,0.88
2022-08-07T01:58:29.132Z,0.84
2022-08-07T01:59:31.107Z,0.92
2022-08-07T02:00:45.359Z,1.02
2022-08-07T02:02:02.053Z,1.07
2022-08-07T02:03:12.310Z,1.02
2022-08-07T02:04:15.537Z,1.14
2022-08-07T02:05:47.865Z,0.77
2022-08-07T02:06:35.562Z,0.97
2022-08-07T02:07:51.392Z,1.07
2022-08-07T02:09:11.712Z,1.01
2022-08-07T02:10:20.632Z,1.17
2022-08-07T02:12:03.038Z,0.89
2022-08-07T02:12:35.605Z,1.01
2022-08-07T02:13:56.393Z,1.02
2022-08-07T02:14:50.990Z,0.80
2022-08-07T02:15:59.355Z,0.85
2022-08-07T02:17:06.189Z,0.93
2022-08-07T02:18:12.791Z,1.16
2022-08-07T02:20:07.470Z,1.03
2022-08-07T02:20:24.152Z,1.01
2022-08-07T02:21:55.820Z,1.36
2022-08-07T02:22:41.375Z,0.97
2022-08-07T02:23:47.321Z,0.97
2022-08-07T02:24:54.207Z,0.94
2022-08-07T02:26:31.905Z,1.00
2022-08-07T02:27:04.859Z,0.99
2022-08-07T02:28:08.961Z,0.98
2022-08-07T02:29:14.431Z,0.96
2022-08-07T02:30:20.524Z,1.21
2022-08-07T02:31:29.065Z,0.98
2022-08-07T02:32:30.342Z,0.76
2022-08-07T02:34:01.742Z,1.18
2022-08-07T02:34:48.834Z,0.84
2022-08-07T02:36:30.336Z,1.19
2022-08-07T02:36:57.442Z,1.08
2022-08-07T02:38:04.523Z,0.87
2022-08-07T02:39:16.082Z,0.96
2022-08-07T02:40:35.152Z,1.18
2022-08-07T02:41:21.799Z,1.18
2022-08-07T02:42:25.714Z,1.02
2022-08-07T02:43:29.710Z,1.01
2022-08-07T02:44:36.454Z,1.40
2022-08-07T02:46:01.585Z,1.08
2022-08-07T02:46:52.790Z,1.04
2022-08-07T02:47:54.356Z,1.27
2022-08-07T02:48:57.703Z,0.98
2022-08-07T02:50:00.926Z,1.07
2022-08-07T02:51:28.955Z,1.08
2022-08-07T02:52:32.263Z,1.21
2022-08-07T02:53:38.291Z,1.23
2022-08-07T02:54:41.102Z,0.94
2022-08-07T02:56:03.518Z,1.07
2022-08-07T02:56:54.941Z,1.00
2022-08-07T02:58:02.267Z,1.43
2022-08-07T02:59:09.109Z,1.13
2022-08-07T03:00:15.191Z,1.10
2022-08-07T03:01:36.455Z,1.22
2022-08-07T03:02:27.669Z,1.07
2022-08-07T03:03:49.930Z,1.66
2022-08-07T03:04:40.792Z,1.48
2022-08-07T03:05:45.266Z,1.42
2022-08-07T03:06:50.169Z,1.29
2022-08-07T03:08:07.795Z,0.97
2022-08-07T03:09:04.256Z,1.16
2022-08-07T03:10:09.726Z,1.18
2022-08-07T03:11:14.341Z,1.10
2022-08-07T03:12:22.521Z,1.36
2022-08-07T03:13:25.021Z,1.14
2022-08-07T03:14:30.388Z,1.41
2022-08-07T03:15:55.985Z,1.13
2022-08-07T03:16:40.523Z,1.43
2022-08-07T03:17:53.598Z,1.37
2022-08-07T03:18:52.115Z,1.32
2022-08-07T03:19:56.173Z,1.05
2022-08-07T03:21:02.577Z,1.39
2022-08-07T03:22:06.803Z,1.36
2022-08-07T03:23:18.945Z,1.35
2022-08-07T03:24:19.283Z,1.22
2022-08-07T03:25:22.893Z,1.41
2022-08-07T03:26:31.371Z,1.40
2022-08-07T03:27:59.047Z,1.10
2022-08-07T03:28:41.850Z,1.34
2022-08-07T03:29:51.220Z,1.25
2022-08-07T03:30:59.252Z,1.03
2022-08-07T03:32:08.394Z,1.21
2022-08-07T03:33:15.037Z,1.11
2022-08-07T03:34:22.547Z,1.09
2022-08-07T03:35:27.419Z,1.02
2022-08-07T03:36:34.045Z,1.07
2022-08-07T03:37:46.294Z,1.26
2022-08-07T03:38:45.288Z,1.04
2022-08-07T03:39:59.615Z,1.13
2022-08-07T03:40:57.375Z,1.14
2022-08-07T03:42:03.448Z,0.91
2022-08-07T03:43:13.787Z,1.10
2022-08-07T03:44:15.355Z,1.16
2022-08-07T03:45:31.035Z,1.37
2022-08-07T03:46:28.507Z,1.86
2022-08-07T03:47:47.896Z,0.95
2022-08-07T03:49:02.231Z,1.22
2022-08-07T03:49:51.989Z,1.19
2022-08-07T03:50:55.992Z,1.29
2022-08-07T03:52:01.445Z,1.18
2022-08-07T03:53:03.520Z,1.23
2022-08-07T03:54:36.484Z,1.26
2022-08-07T03:55:13.645Z,1.31
2022-08-07T03:56:33.290Z,0.89
2022-08-07T03:58:33.923Z,1.23
2022-08-07T03:59:08.891Z,0.92
2022-08-07T03:59:46.402Z,1.07
2022-08-07T04:00:54.909Z,1.04
2022-08-07T04:01:55.870Z,1.01
2022-08-07T04:03:04.162Z,0.91
2022-08-07T04:04:07.712Z,1.31
2022-08-07T04:05:12.591Z,1.19
2022-08-07T04:06:38.024Z,1.01
2022-08-07T04:07:22.985Z,1.06
2022-08-07T04:08:27.143Z,1.15
2022-08-07T04:09:38.067Z,1.16
2022-08-07T04:10:40.007Z,0.98
2022-08-07T04:12:23.605Z,0.77
2022-08-07T04:12:51.511Z,0.96
2022-08-07T04:14:10.700Z,1.00
2022-08-07T04:15:02.329Z,1.14
2022-08-07T04:16:10.867Z,1.01
2022-08-07T04:17:20.418Z,1.13
2022-08-07T04:18:56.633Z,1.04
2022-08-07T04:19:25.287Z,0.97
2022-08-07T04:20:30.931Z,1.08
2022-08-07T04:21:35.529Z,0.86
2022-08-07T04:22:40.094Z,1.01
2022-08-07T04:24:05.687Z,1.34
2022-08-07T04:24:52.315Z,1.28
2022-08-07T04:25:56.745Z,1.06
2022-08-07T04:27:02.446Z,0.82
2022-08-07T04:28:09.718Z,0.96
2022-08-07T04:29:14.929Z,0.94
2022-08-07T04:30:44.044Z,1.06
2022-08-07T04:31:39.253Z,1.16
2022-08-07T04:32:35.184Z,0.97
2022-08-07T04:33:39.877Z,1.02
2022-08-07T04:34:43.293Z,0.86
2022-08-07T04:35:50.993Z,1.16
2022-08-07T04:36:53.549Z,1.10
2022-08-07T04:38:03.489Z,1.46
2022-08-07T04:39:02.756Z,1.12
2022-08-07T04:40:07.191Z,1.01
2022-08-07T04:41:19.034Z,0.92
2022-08-07T04:42:17.650Z,1.06
2022-08-07T04:44:10.532Z,0.60
2022-08-07T04:44:32.359Z,0.91
2022-08-07T04:46:01.290Z,1.39
2022-08-07T04:49:47.368Z,0.86
2022-08-07T04:51:18.316Z,0.68
2022-08-07T04:52:27.489Z,0.86
2022-08-07T04:54:05.734Z,0.90
2022-08-07T04:58:13.247Z,0.87
2022-08-07T04:58:24.121Z,1.23
2022-08-07T04:59:17.073Z,0.86
2022-08-07T05:00:18.857Z,0.91
2022-08-07T05:01:19.378Z,0.80
2022-08-07T05:02:50.291Z,0.94
2022-08-07T05:05:11.548Z,0.78
2022-08-07T05:06:20.122Z,0.83
2022-08-07T05:07:48.466Z,1.03
2022-08-07T05:09:06.236Z,1.04
2022-08-07T05:10:14.970Z,0.94
2022-08-07T05:11:57.476Z,0.89
2022-08-07T05:12:46.207Z,0.95
2022-08-07T05:14:52.563Z,0.69
2022-08-07T05:15:23.400Z,0.97
2022-08-07T05:16:25.290Z,0.86
2022-08-07T05:17:52.319Z,0.96
2022-08-07T05:18:51.119Z,1.10
2022-08-07T05:19:55.941Z,1.06
2022-08-07T05:21:05.420Z,0.82
2022-08-07T05:22:12.753Z,0.97
2022-08-07T05:23:23.081Z,1.44
2022-08-07T05:24:30.405Z,0.84
2022-08-07T05:25:54.635Z,1.01
2022-08-07T05:26:40.518Z,1.43
2022-08-07T05:28:16.473Z,1.22
2022-08-07T05:28:55.666Z,1.04
2022-08-07T05:30:02.056Z,1.07
2022-08-07T05:31:06.892Z,1.01
2022-08-07T05:32:11.434Z,1.24
2022-08-07T05:33:15.329Z,1.24
2022-08-07T05:34:21.571Z,1.37
2022-08-07T05:35:33.388Z,1.10
2022-08-07T05:36:35.755Z,1.03
2022-08-07T05:37:40.823Z,1.38
2022-08-07T05:38:58.262Z,1.44
2022-08-07T05:40:05.414Z,1.13
2022-08-07T05:40:57.380Z,1.18
2022-08-07T05:42:05.341Z,1.61
2022-08-07T05:43:06.272Z,1.15
2022-08-07T05:44:13.131Z,1.28
2022-08-07T05:45:28.269Z,1.55
2022-08-07T05:46:26.452Z,1.35
2022-08-07T05:47:38.706Z,1.29
2022-08-07T05:48:59.030Z,1.29
2022-08-07T05:49:46.958Z,1.48
2022-08-07T05:50:52.523Z,1.44
2022-08-07T05:51:55.756Z,1.44
2022-08-07T05:53:01.330Z,1.31
2022-08-07T05:54:09.429Z,1.17
2022-08-07T05:55:10.502Z,1.37
2022-08-07T05:56:19.864Z,1.39
2022-08-07T05:57:30.148Z,1.36
2022-08-07T05:58:36.654Z,1.28
2022-08-07T05:59:55.851Z,1.52
2022-08-07T06:00:51.106Z,1.31
2022-08-07T06:01:57.849Z,1.35
2022-08-07T06:03:04.888Z,1.44
2022-08-07T06:04:10.665Z,1.46
2022-08-07T06:05:16.856Z,1.38
2022-08-07T06:06:24.329Z,1.45
2022-08-07T06:08:14.949Z,1.29
2022-08-07T06:08:38.127Z,1.48
2022-08-07T06:10:04.157Z,1.49
2022-08-07T06:10:46.554Z,1.52
2022-08-07T06:11:51.636Z,1.41
2022-08-07T06:12:56.929Z,1.39
2022-08-07T06:14:13.785Z,1.27
2022-08-07T06:15:06.902Z,1.14
2022-08-07T06:16:13.508Z,1.26
2022-08-07T06:17:18.483Z,1.27
2022-08-07T06:18:22.585Z,1.18
2022-08-07T06:19:51.858Z,1.33
2022-08-07T06:20:51.139Z,1.28
2022-08-07T06:22:14.941Z,1.38
2022-08-07T06:23:02.496Z,1.00
2022-08-07T06:24:45.990Z,1.28
2022-08-07T06:25:05.048Z,1.76
2022-08-07T06:26:12.392Z,2.28
2022-08-07T06:27:59.657Z,1.87
2022-08-07T06:28:29.147Z,1.33
2022-08-07T06:29:33.671Z,1.83
2022-08-07T06:30:42.668Z,1.38
2022-08-07T06:31:49.597Z,1.05
2022-08-07T06:32:50.132Z,1.14
2022-08-07T06:33:53.987Z,1.13
2022-08-07T06:35:00.145Z,0.91
2022-08-07T06:36:11.983Z,1.14
2022-08-07T06:37:11.358Z,0.84
2022-08-07T06:38:20.064Z,1.16
2022-08-07T06:40:13.351Z,1.09
2022-08-07T06:40:35.150Z,0.93
2022-08-07T06:42:00.658Z,0.96
2022-08-07T06:42:48.434Z,0.97
2022-08-07T06:44:01.406Z,1.01
2022-08-07T06:45:02.975Z,0.84
2022-08-07T06:46:06.339Z,0.62
2022-08-07T06:47:12.421Z,0.81
2022-08-07T06:48:24.743Z,0.80
2022-08-07T06:49:21.733Z,1.13
2022-08-07T06:50:25.465Z,0.84
2022-08-07T06:51:33.421Z,0.97
2022-08-07T06:52:41.571Z,0.85
2022-08-07T06:55:30.085Z,0.93
2022-08-07T06:55:33.100Z,0.99
2022-08-07T06:56:02.421Z,1.32
2022-08-07T06:57:09.028Z,1.27
2022-08-07T06:58:16.581Z,1.26
2022-08-07T07:00:11.707Z,1.37
2022-08-07T07:00:42.654Z,1.62
2022-08-07T07:01:50.912Z,1.57
2022-08-07T07:02:58.043Z,1.43
2022-08-07T07:04:07.008Z,1.18
2022-08-07T07:05:04.136Z,1.34
2022-08-07T07:06:10.960Z,1.36
2022-08-07T07:07:58.448Z,1.13
2022-08-07T07:08:29.282Z,1.01
2022-08-07T07:09:33.389Z,1.48
2022-08-07T07:10:38.639Z,1.20
2022-08-07T07:12:07.849Z,1.21
2022-08-07T07:12:56.029Z,0.89
2022-08-07T07:14:02.358Z,0.90
2022-08-07T07:15:24.038Z,1.31
2022-08-07T07:16:27.484Z,0.96
2022-08-07T07:17:39.556Z,0.93
2022-08-07T07:18:48.782Z,1.11
2022-08-07T07:19:59.138Z,1.31
2022-08-07T07:21:13.641Z,1.09
2022-08-07T07:22:36.673Z,0.88
2022-08-07T07:24:08.317Z,0.77
2022-08-07T07:26:34.087Z,0.88
2022-08-07T07:26:49.661Z,1.08
2022-08-07T07:28:02.563Z,1.77
2022-08-07T07:29:56.427Z,1.20
2022-08-07T07:30:12.973Z,0.85
2022-08-07T07:31:39.877Z,1.07
2022-08-07T07:32:39.853Z,1.24
2022-08-07T07:33:54.975Z,0.97
2022-08-07T07:34:53.410Z,1.01
2022-08-07T07:36:05.480Z,1.20
2022-08-07T07:37:22.160Z,0.97
2022-08-07T07:38:12.940Z,0.92
2022-08-07T07:39:18.244Z,0.80
2022-08-07T07:40:26.148Z,1.02
2022-08-07T07:41:50.646Z,1.09
2022-08-07T07:42:37.276Z,0.87
2022-08-07T07:44:13.968Z,0.85
2022-08-07T07:44:49.889Z,1.10
2022-08-07T07:46:40.342Z,1.14
2022-08-07T07:47:14.098Z,1.04
2022-08-07T07:48:07.626Z,0.83
2022-08-07T07:50:31.616Z,1.08
2022-08-07T07:50:35.098Z,1.15
2022-08-07T07:51:29.507Z,0.99
2022-08-07T07:52:36.191Z,1.11
2022-08-07T07:53:52.716Z,0.84
2022-08-07T07:54:51.385Z,1.08
2022-08-07T07:56:00.881Z,1.05
2022-08-07T07:57:06.381Z,0.86
2022-08-07T07:58:10.466Z,1.11
2022-08-07T07:59:14.133Z,1.00
2022-08-07T08:00:29.146Z,1.14
2022-08-07T08:02:02.086Z,1.12
2022-08-07T08:02:35.650Z,1.27
2022-08-07T08:04:09.697Z,0.94
2022-08-07T08:04:47.209Z,1.21
2022-08-07T08:05:54.986Z,0.93
2022-08-07T08:07:00.715Z,1.12
2022-08-07T08:08:05.786Z,1.14
2022-08-07T08:09:12.470Z,0.92
2022-08-07T08:10:35.696Z,1.04
2022-08-07T08:11:47.202Z,1.28
2022-08-07T08:12:52.627Z,1.33
2022-08-07T08:13:50.810Z,1.08
2022-08-07T08:14:47.546Z,0.92
2022-08-07T08:15:58.340Z,1.06
2022-08-07T08:17:14.023Z,0.97
2022-08-07T08:18:17.593Z,1.08
2022-08-07T08:20:16.237Z,1.17
2022-08-07T08:20:27.319Z,0.78
2022-08-07T08:22:00.518Z,1.04
2022-08-07T08:23:14.565Z,1.18
2022-08-07T08:24:44.933Z,0.87
2022-08-07T08:26:06.691Z,1.33
2022-08-07T08:27:09.372Z,1.09
2022-08-07T08:28:16.833Z,1.14
2022-08-07T08:29:21.637Z,1.44
2022-08-07T08:30:25.415Z,1.10
2022-08-07T08:32:16.870Z,0.99
2022-08-07T08:32:48.688Z,1.34
2022-08-07T08:33:55.675Z,1.00
2022-08-07T08:36:07.017Z,1.05
2022-08-07T08:37:59.272Z,1.31
2022-08-07T08:38:21.235Z,0.95
2022-08-07T08:39:39.314Z,0.92
2022-08-07T08:40:43.781Z,1.13
2022-08-07T08:41:57.898Z,0.97
2022-08-07T08:43:22.088Z,1.15
2022-08-07T08:44:44.434Z,1.08
2022-08-07T08:46:00.814Z,0.93
2022-08-07T08:47:28.935Z,1.08
2022-08-07T08:48:38.534Z,1.02
2022-08-07T08:50:04.855Z,1.06
2022-08-07T08:51:26.099Z,1.34
2022-08-07T08:52:30.379Z,1.20
2022-08-07T08:55:21.155Z,1.01
2022-08-07T08:56:30.345Z,0.88
2022-08-07T08:57:36.799Z,0.89
2022-08-07T08:58:50.414Z,1.02
2022-08-07T09:00:08.425Z,0.78
2022-08-07T09:01:39.720Z,0.97
2022-08-07T09:02:53.939Z,1.10
2022-08-07T09:04:18.673Z,1.24
2022-08-07T09:05:37.162Z,1.04
2022-08-07T09:06:47.747Z,1.32
2022-08-07T09:09:29.906Z,1.11
2022-08-07T09:10:36.640Z,1.13
2022-08-07T09:11:53.300Z,1.43
2022-08-07T09:13:08.776Z,1.57
2022-08-07T09:14:34.685Z,1.23
2022-08-07T09:16:25.606Z,1.38
2022-08-07T09:17:58.665Z,1.14
2022-08-07T09:18:53.157Z,1.51
2022-08-07T09:19:57.027Z,1.29
2022-08-07T09:21:57.705Z,1.60
2022-08-07T09:24:32.199Z,1.69
2022-08-07T09:24:53.623Z,1.30
2022-08-07T09:26:23.001Z,1.22
2022-08-07T09:28:00.200Z,1.17
2022-08-07T09:30:04.215Z,1.22
2022-08-07T09:30:04.373Z,1.06
2022-08-07T09:31:23.995Z,1.21
2022-08-07T09:32:56.372Z,1.18
2022-08-07T09:34:12.462Z,1.18
2022-08-07T09:36:03.238Z,1.29
2022-08-07T09:37:00.743Z,1.05
2022-08-07T09:38:13.467Z,1.40
2022-08-07T09:39:55.212Z,1.17
2022-08-07T09:40:50.173Z,1.14
2022-08-07T09:42:17.065Z,1.32
2022-08-07T09:44:03.348Z,1.24
2022-08-07T09:47:24.790Z,1.74
2022-08-07T09:47:49.690Z,1.74
2022-08-07T09:47:55.970Z,1.93
2022-08-07T09:50:01.909Z,2.45
2022-08-07T09:50:34.128Z,2.09
2022-08-07T09:52:16.435Z,2.99
2022-08-07T09:52:51.752Z,2.89
2022-08-07T09:54:02.296Z,3.04
2022-08-07T09:55:28.872Z,4.29
2022-08-07T09:56:46.388Z,3.91
2022-08-07T09:58:11.566Z,3.08
2022-08-07T09:59:37.109Z,2.27
2022-08-07T10:00:55.116Z,1.84
2022-08-07T10:02:10.869Z,1.74
2022-08-07T10:04:03.717Z,1.52
2022-08-07T10:05:13.749Z,1.28
2022-08-07T10:06:37.315Z,1.54
2022-08-07T10:07:59.247Z,1.83
2022-08-07T10:09:15.522Z,1.89
2022-08-07T10:11:17.043Z,1.84
2022-08-07T10:12:04.690Z,2.33
2022-08-07T10:13:55.237Z,2.42
2022-08-07T10:14:39.278Z,3.09
2022-08-07T10:16:14.871Z,2.87
2022-08-07T10:18:00.940Z,3.39
2022-08-07T10:19:05.332Z,3.56
2022-08-07T10:20:30.491Z,3.16
2022-08-07T10:22:15.952Z,2.22
2022-08-07T10:23:09.769Z,2.19
2022-08-07T10:24:25.440Z,1.93
2022-08-07T10:25:56.531Z,1.98
2022-08-07T10:27:46.297Z,2.03
2022-08-07T10:28:49.649Z,1.79
2022-08-07T10:30:06.570Z,1.58
2022-08-07T10:31:38.795Z,1.99
2022-08-07T10:32:53.179Z,1.91
2022-08-07T10:34:32.430Z,1.69
2022-08-07T10:35:56.059Z,1.58
2022-08-07T10:37:12.422Z,2.23
2022-08-07T10:38:36.302Z,1.61
2022-08-07T10:40:02.919Z,2.08
2022-08-07T10:41:47.370Z,2.51
2022-08-07T10:42:43.463Z,2.88
2022-08-07T10:44:07.343Z,2.57
2022-08-07T10:45:16.820Z,3.14
2022-08-07T10:46:25.365Z,4.86
2022-08-07T10:47:53.339Z,3.84
2022-08-07T10:48:48.211Z,3.21
2022-08-07T10:50:07.641Z,3.36
2022-08-07T10:52:34.206Z,2.04
2022-08-07T10:54:00.560Z,1.81
2022-08-07T10:55:26.760Z,1.71
2022-08-07T10:56:31.452Z,1.33
2022-08-07T10:57:35.751Z,1.61
2022-08-07T10:59:21.154Z,1.97
2022-08-07T11:00:36.715Z,2.22
2022-08-07T11:01:51.813Z,2.36
2022-08-07T11:03:10.985Z,2.32
2022-08-07T11:04:52.722Z,1.91
2022-08-07T11:06:18.485Z,2.14
2022-08-07T11:07:58.953Z,1.85
2022-08-07T11:08:55.554Z,2.10
2022-08-07T11:10:09.922Z,2.16
2022-08-07T11:11:20.825Z,2.12
2022-08-07T11:12:38.226Z,1.89
2022-08-07T11:14:44.399Z,1.57
2022-08-07T11:15:00.101Z,1.70
2022-08-07T11:16:13.483Z,1.64
2022-08-07T11:17:43.066Z,1.82
2022-08-07T11:18:50.871Z,1.54
2022-08-07T11:19:56.780Z,2.07
2022-08-07T11:21:11.886Z,2.22
2022-08-07T11:22:32.317Z,2.05
2022-08-07T11:23:45.434Z,2.48
2022-08-07T11:25:21.641Z,1.71
2022-08-07T11:26:45.082Z,1.79
2022-08-07T11:28:25.533Z,1.68
2022-08-07T11:29:53.854Z,1.79
2022-08-07T11:31:08.870Z,1.68
2022-08-07T11:32:25.859Z,1.72
2022-08-07T11:33:54.027Z,1.61
2022-08-07T11:35:02.598Z,1.64
2022-08-07T11:36:31.019Z,1.73
2022-08-07T11:37:38.463Z,1.58
2022-08-07T11:38:56.661Z,1.66
2022-08-07T11:40:11.183Z,1.56
2022-08-07T11:41:28.280Z,1.62
2022-08-07T11:42:33.891Z,1.59
2022-08-07T11:44:10.916Z,1.54
2022-08-07T11:45:03.872Z,1.43
2022-08-07T11:46:28.117Z,1.42
2022-08-07T11:47:55.924Z,1.56
2022-08-07T11:49:50.288Z,1.58
2022-08-07T11:50:32.647Z,1.58
2022-08-07T11:51:46.600Z,1.32
2022-08-07T11:53:21.783Z,1.39
2022-08-07T11:54:37.530Z,1.65
2022-08-07T11:56:13.983Z,1.51
2022-08-07T11:58:20.306Z,1.55
2022-08-07T12:00:10.296Z,2.00
2022-08-07T12:01:06.974Z,3.81
2022-08-07T12:02:30.651Z,3.82
2022-08-07T12:05:40.981Z,2.53
2022-08-07T12:07:01.118Z,1.88
2022-08-07T12:08:25.725Z,1.81
2022-08-07T12:09:39.714Z,1.41
2022-08-07T12:11:20.307Z,1.41
2022-08-07T12:12:13.835Z,1.27
2022-08-07T12:13:47.772Z,1.34
2022-08-07T12:14:56.383Z,1.23
2022-08-07T12:16:06.134Z,1.30
2022-08-07T12:17:09.857Z,1.31
2022-08-07T12:18:45.116Z,1.38
2022-08-07T12:20:03.266Z,1.37
2022-08-07T12:21:09.470Z,1.56
2022-08-07T12:22:39.372Z,1.53
2022-08-07T12:24:07.435Z,1.59
2022-08-07T12:26:02.953Z,1.18
2022-08-07T12:26:49.192Z,1.48
2022-08-07T12:28:08.741Z,1.02
2022-08-07T12:29:37.969Z,1.40
2022-08-07T12:30:30.949Z,1.42
2022-08-07T12:32:02.608Z,1.14
2022-08-07T12:32:54.002Z,1.12
2022-08-07T12:34:01.876Z,1.27
2022-08-07T12:35:08.257Z,1.08
2022-08-07T12:36:13.426Z,1.30
2022-08-07T12:37:28.258Z,1.39
2022-08-07T12:38:36.794Z,1.26
2022-08-07T12:39:43.000Z,1.44
2022-08-07T12:40:47.109Z,1.18
2022-08-07T12:41:52.989Z,1.49
2022-08-07T12:43:00.858Z,1.08
2022-08-07T12:44:12.916Z,1.49
2022-08-07T12:45:23.204Z,1.82
2022-08-07T12:46:51.576Z,1.84
2022-08-07T12:48:03.685Z,1.63
2022-08-07T12:49:44.802Z,1.29
2022-08-07T12:50:48.641Z,1.93
2022-08-07T12:52:14.332Z,1.79
2022-08-07T12:53:27.636Z,2.10
2022-08-07T12:54:39.038Z,1.73
2022-08-07T12:56:02.013Z,1.78
2022-08-07T12:56:54.985Z,1.60
2022-08-07T12:58:01.933Z,1.44
2022-08-07T12:59:08.663Z,1.50
2022-08-07T13:00:20.878Z,1.39
2022-08-07T13:01:39.851Z,1.78
2022-08-07T13:03:06.888Z,1.34
2022-08-07T13:04:32.641Z,1.48
2022-08-07T13:06:02.554Z,1.37
2022-08-07T13:07:05.951Z,1.46
2022-08-07T13:08:37.454Z,1.61
2022-08-07T13:10:19.500Z,1.40
2022-08-07T13:11:16.339Z,1.25
2022-08-07T13:12:30.567Z,1.16
2022-08-07T13:15:23.494Z,0.99
2022-08-07T13:16:50.925Z,1.49
2022-08-07T13:18:01.734Z,1.04
2022-08-07T13:19:11.354Z,1.13
2022-08-07T13:20:37.780Z,1.02
2022-08-07T13:22:04.004Z,1.02
2022-08-07T13:24:01.952Z,0.93
2022-08-07T13:24:30.543Z,1.13
2022-08-07T13:25:41.750Z,0.81
2022-08-07T13:27:06.063Z,1.12
2022-08-07T13:28:18.598Z,0.90
2022-08-07T13:29:24.562Z,0.81
2022-08-07T13:32:32.647Z,0.91
2022-08-07T13:34:31.027Z,1.07
2022-08-07T13:34:48.565Z,1.04
2022-08-07T13:35:59.674Z,1.11
2022-08-07T13:37:20.123Z,0.84
2022-08-07T13:38:20.402Z,0.83
2022-08-07T13:40:32.832Z,1.10
2022-08-07T13:40:59.930Z,0.81
2022-08-07T13:42:08.016Z,0.80
2022-08-07T13:43:15.179Z,1.61
2022-08-07T13:44:26.938Z,2.11
2022-08-07T13:46:11.893Z,1.48
2022-08-07T13:46:49.411Z,1.54
2022-08-07T13:48:07.789Z,1.71
2022-08-07T13:50:32.843Z,1.19
2022-08-07T13:51:26.880Z,1.54
2022-08-07T13:52:36.289Z,1.41
2022-08-07T13:53:59.481Z,1.42
2022-08-07T13:54:43.101Z,1.62
2022-08-07T13:55:54.906Z,1.69
2022-08-07T13:56:59.792Z,1.50
2022-08-07T13:58:28.162Z,1.42
2022-08-07T13:59:33.294Z,1.27
2022-08-07T14:00:50.419Z,1.10
2022-08-07T14:01:51.272Z,1.38
2022-08-07T14:02:54.147Z,1.20
2022-08-07T14:04:05.691Z,1.26
2022-08-07T14:05:11.388Z,1.00
2022-08-07T14:06:17.078Z,1.41
2022-08-07T14:07:30.644Z,1.46
2022-08-07T14:08:37.579Z,1.60
2022-08-07T14:10:02.375Z,1.36
2022-08-07T14:11:14.657Z,1.11
2022-08-07T14:12:04.817Z,1.12
2022-08-07T14:13:09.607Z,1.42
2022-08-07T14:14:15.335Z,1.14
2022-08-07T14:15:35.263Z,0.97
2022-08-07T14:18:24.163Z,1.33
2022-08-07T14:18:57.161Z,1.17
2022-08-07T14:20:42.076Z,1.41
2022-08-07T14:22:02.140Z,1.38
2022-08-07T14:22:37.499Z,1.08
2022-08-07T14:24:00.085Z,1.32
2022-08-07T14:24:52.414Z,1.32
2022-08-07T14:26:08.513Z,1.11
2022-08-07T14:28:09.853Z,1.46
2022-08-07T14:28:19.314Z,1.13
2022-08-07T14:30:07.963Z,1.24
2022-08-07T14:30:33.189Z,1.09
2022-08-07T14:31:43.259Z,0.97
2022-08-07T14:32:49.213Z,1.36
2022-08-07T14:33:54.321Z,1.50
2022-08-07T14:35:01.260Z,1.32
2022-08-07T14:36:09.897Z,1.38
2022-08-07T14:37:17.767Z,0.84
2022-08-07T14:38:31.338Z,0.96
2022-08-07T14:40:15.885Z,1.33
2022-08-07T14:40:42.345Z,0.89
2022-08-07T14:42:20.777Z,0.86
2022-08-07T14:43:58.700Z,0.98
2022-08-07T14:44:11.824Z,1.00
2022-08-07T14:45:21.917Z,1.02
2022-08-07T14:46:30.658Z,0.79
2022-08-07T14:47:32.531Z,0.81
2022-08-07T14:48:39.873Z,0.74
2022-08-07T14:49:58.513Z,0.77
2022-08-07T14:50:55.732Z,1.09
2022-08-07T14:53:08.140Z,0.96
2022-08-07T14:55:22.980Z,0.92
2022-08-07T14:56:30.432Z,0.68
2022-08-07T14:57:58.615Z,0.81
2022-08-07T15:00:05.439Z,1.18
2022-08-07T15:01:21.332Z,0.87
2022-08-07T15:02:33.211Z,0.63
2022-08-07T15:04:31.916Z,1.00
2022-08-07T15:05:37.822Z,1.03
2022-08-07T15:07:52.715Z,0.82
2022-08-07T15:09:02.938Z,0.91
2022-08-07T15:10:11.199Z,0.98
2022-08-07T15:11:15.486Z,1.09
2022-08-07T15:13:06.216Z,1.21
2022-08-07T15:14:57.776Z,0.96
2022-08-07T15:15:52.650Z,0.89
2022-08-07T15:17:00.802Z,1.07
2022-08-07T15:18:28.651Z,1.23
2022-08-07T15:20:31.255Z,1.04
2022-08-07T15:20:54.668Z,1.23
2022-08-07T15:22:03.935Z,0.99
2022-08-07T15:22:54.841Z,1.11
2022-08-07T15:25:13.906Z,1.13
2022-08-07T15:26:20.881Z,1.41
2022-08-07T15:27:29.042Z,1.12
2022-08-07T15:28:41.528Z,1.07
2022-08-07T15:30:06.419Z,1.17
2022-08-07T15:30:59.441Z,1.37
2022-08-07T15:32:05.031Z,1.88
2022-08-07T15:34:15.070Z,1.25
2022-08-07T15:37:03.802Z,1.24
2022-08-07T15:38:17.797Z,1.16
2022-08-07T15:38:59.138Z,1.82
2022-08-07T15:39:56.464Z,1.47
2022-08-07T15:41:00.281Z,1.14
2022-08-07T15:43:53.374Z,1.22
2022-08-07T15:45:57.239Z,1.03
2022-08-07T15:46:51.658Z,1.16
2022-08-07T15:48:01.451Z,1.25
2022-08-07T15:49:03.765Z,1.28
2022-08-07T15:52:36.425Z,1.08
2022-08-07T15:53:52.091Z,1.02
2022-08-07T15:54:51.362Z,0.96
2022-08-07T15:56:02.754Z,1.14
2022-08-07T15:57:04.783Z,1.31
2022-08-07T15:58:20.732Z,1.46
2022-08-07T15:59:19.685Z,1.31
2022-08-07T16:00:33.377Z,1.64
2022-08-07T16:01:39.350Z,1.21
2022-08-07T16:02:46.651Z,1.33
2022-08-07T16:03:55.689Z,1.29
2022-08-07T16:05:00.296Z,1.31
2022-08-07T16:06:05.259Z,1.49
2022-08-07T16:08:28.994Z,1.22
2022-08-07T16:08:31.522Z,1.48
2022-08-07T16:09:53.319Z,1.47
2022-08-07T16:11:17.503Z,1.39
2022-08-07T16:12:28.848Z,1.47
2022-08-07T16:13:58.963Z,1.49